Alva Dupre — WDG3104 — position and weather

sailwx.info

Track history (hours):
 
Tides and Currents Weather Stations Pressure Air Temp Water Temp Dewpoint Dewpoint Depression Visibility Wind Speed Wind Dir Waves Ship Positions

Alva Dupre

Owner: Dupre Marine Transportation Inc, Houma, LA. More information available from US FCC via Universal Licensing System and Coast Guard Vessel Documentation Center.

Last reported at 2017-Sep-21 08:27 UTC. Time now 2017-Sep-21 09:00 UTC.
Position N 29°44' W 095°01'.

Length 23 m; draft 3.2 m.

Type: . MMSI: 367522540.

Date/timePositionNaut miles runAvg speedWind from/ knotsBaromVisibWave heightAir tempDewpointWater temp
2017-Sep-21 08:27N 29°44' W 095°01'0 0.0
2017-Sep-21 08:00N 29°44' W 095°01'0 0.0
2017-Sep-21 07:30N 29°44' W 095°01'0 0.0
2017-Sep-21 06:39N 29°44' W 095°01'0 0.0
2017-Sep-21 06:27N 29°44' W 095°01'0 0.0
2017-Sep-21 05:48N 29°44' W 095°01'0 0.0
2017-Sep-21 05:27N 29°44' W 095°01'0 0.0
2017-Sep-21 04:54N 29°44' W 095°01'0 0.0
2017-Sep-21 04:30N 29°44' W 095°01'0 0.0
2017-Sep-21 04:00N 29°44' W 095°01'0 0.0
2017-Sep-21 03:30N 29°44' W 095°01'0 0.0
2017-Sep-21 02:57N 29°44' W 095°01'0 0.1
2017-Sep-21 02:15N 29°44' W 095°01'0 0.0
2017-Sep-21 01:54N 29°44' W 095°01'0 0.0
2017-Sep-21 01:27N 29°44' W 095°01'0 0.0
2017-Sep-21 00:57N 29°44' W 095°01'0 0.0
2017-Sep-21 00:30N 29°44' W 095°01'0 0.0
2017-Sep-20 23:57N 29°44' W 095°01'0 0.0
2017-Sep-20 23:27N 29°44' W 095°01'0 0.0
2017-Sep-20 22:51N 29°44' W 095°01'0 0.0
2017-Sep-20 22:30N 29°44' W 095°01'0 0.0
2017-Sep-20 21:57N 29°44' W 095°01'0 0.0
2017-Sep-20 21:24N 29°44' W 095°01'0 0.0
2017-Sep-20 20:47N 29°44' W 095°01'0 0.0
2017-Sep-20 20:23N 29°44' W 095°01'0 0.0
2017-Sep-20 19:59N 29°44' W 095°01'0 0.0
2017-Sep-20 19:26N 29°44' W 095°01'0 0.0
2017-Sep-20 18:29N 29°44' W 095°01'0 0.0
2017-Sep-20 15:29N 29°44' W 095°01'0 0.0
2017-Sep-20 14:59N 29°44' W 095°01'0 0.0
2017-Sep-20 13:41N 29°44' W 095°01'0 0.0
2017-Sep-20 13:29N 29°44' W 095°01'0 0.0
2017-Sep-20 12:53N 29°44' W 095°01'0 0.0
2017-Sep-20 12:20N 29°44' W 095°01'0 0.0
2017-Sep-20 11:44N 29°44' W 095°01'0 0.0
2017-Sep-20 11:26N 29°44' W 095°01'0 0.0
2017-Sep-20 10:26N 29°44' W 095°01'0 0.0
2017-Sep-20 09:56N 29°44' W 095°01'0 0.0
2017-Sep-20 08:44N 29°44' W 095°01'0 0.0
2017-Sep-20 08:26N 29°44' W 095°01'0 0.0
2017-Sep-20 07:38N 29°44' W 095°01'0 0.0
2017-Sep-20 07:23N 29°44' W 095°01'0 0.0
2017-Sep-20 05:29N 29°44' W 095°01'0 0.0
2017-Sep-20 04:53N 29°44' W 095°01'0 0.0
2017-Sep-20 04:23N 29°44' W 095°01'0 0.0
2017-Sep-20 03:38N 29°44' W 095°01'0 0.0
2017-Sep-20 03:23N 29°44' W 095°01'0 0.0
2017-Sep-20 02:59N 29°44' W 095°01'0 0.0
2017-Sep-20 02:29N 29°44' W 095°01'0 0.0
2017-Sep-20 01:53N 29°44' W 095°01'0 0.0
2017-Sep-20 01:29N 29°44' W 095°01'0 0.0
2017-Sep-20 00:59N 29°44' W 095°01'0 0.3
2017-Sep-20 00:09N 29°44' W 095°01'0 0.0
2017-Sep-19 20:41N 29°44' W 095°01'0 0.1
2017-Sep-19 19:04N 29°44' W 095°01'0 2.4
2017-Sep-19 19:00N 29°44' W 095°01'0 0.3
2017-Sep-19 18:19N 29°44' W 095°01'0 0.0
2017-Sep-19 17:55N 29°44' W 095°01'0 0.0
2017-Sep-19 15:35N 29°44' W 095°01'0 0.0
2017-Sep-19 15:29N 29°44' W 095°01'0 0.0
2017-Sep-19 14:50N 29°44' W 095°01'0 0.0
2017-Sep-19 14:23N 29°44' W 095°01'1 2.1
2017-Sep-19 13:59N 29°44' W 095°02'3 5.9
2017-Sep-19 13:29N 29°46' W 095°05'0 0.6
2017-Sep-19 12:41N 29°46' W 095°05'1 0.8
2017-Sep-19 11:16N 29°45' W 095°06'1 1.6
2017-Sep-19 10:23N 29°45' W 095°04'1 2.9
2017-Sep-19 09:56N 29°46' W 095°05'1 1.8
2017-Sep-19 09:15N 29°45' W 095°04'3 7.6
2017-Sep-19 08:54N 29°44' W 095°02'3 7.3
2017-Sep-19 08:30N 29°42' W 094°59'4 7.9
2017-Sep-19 08:00N 29°38' W 094°58'3 5.4
2017-Sep-19 07:30N 29°37' W 095°01'1 1.5
2017-Sep-19 06:58N 29°37' W 095°02'0 0.0
2017-Sep-19 06:28N 29°37' W 095°02'0 0.0
2017-Sep-19 05:46N 29°37' W 095°02'0 0.0
2017-Sep-19 05:19N 29°37' W 095°02'0 0.0
2017-Sep-19 03:10N 29°37' W 095°02'0 0.0
2017-Sep-19 02:58N 29°37' W 095°02'0 0.0
2017-Sep-19 01:40N 29°37' W 095°02'0 0.0
2017-Sep-19 01:22N 29°37' W 095°02'0 0.0
2017-Sep-19 00:16N 29°37' W 095°02'0 0.0
2017-Sep-18 23:58N 29°37' W 095°02'0 0.0
2017-Sep-18 23:22N 29°37' W 095°02'0 0.0
2017-Sep-18 22:43N 29°37' W 095°02'0 0.0
2017-Sep-18 22:28N 29°37' W 095°02'0 0.0
2017-Sep-18 21:58N 29°37' W 095°02'0 0.0
2017-Sep-18 20:34N 29°37' W 095°02'0 0.0
2017-Sep-18 20:25N 29°37' W 095°02'0 0.0
2017-Sep-18 19:55N 29°37' W 095°02'0 0.0
2017-Sep-18 19:22N 29°37' W 095°02'0 0.0
2017-Sep-18 18:55N 29°37' W 095°02'0 0.0
2017-Sep-18 18:04N 29°37' W 095°02'0 0.0
2017-Sep-18 17:58N 29°37' W 095°02'0 0.0
2017-Sep-18 17:19N 29°37' W 095°02'0 0.0
2017-Sep-18 16:58N 29°37' W 095°02'0 0.1
2017-Sep-18 16:30N 29°37' W 095°01'0 0.5
2017-Sep-18 16:00N 29°37' W 095°01'3 6.4
2017-Sep-18 15:30N 29°38' W 094°58'4 8.7
2017-Sep-18 15:00N 29°42' W 094°60'4 7.4
2017-Sep-18 14:29N 29°44' W 095°03'3 6.3
2017-Sep-18 14:00N 29°47' W 095°04'1 1.0
2017-Sep-18 13:01N 29°46' W 095°05'0 7.2
2017-Sep-18 13:00N 29°46' W 095°05'4 7.0
2017-Sep-18 12:30N 29°44' W 095°01'0 0.0
2017-Sep-18 12:00N 29°44' W 095°01'0 0.0
2017-Sep-18 11:28N 29°44' W 095°01'0 0.0
2017-Sep-18 10:58N 29°44' W 095°01'2 4.7
2017-Sep-18 10:30N 29°45' W 095°04'2 0.6
2017-Sep-18 07:58N 29°46' W 095°05'1 1.5
2017-Sep-18 07:23N 29°46' W 095°06'0 0.0
2017-Sep-18 05:59N 29°45' W 095°06'0 0.0
2017-Sep-17 00:44N 29°45' W 095°06'0 0.2
2017-Sep-16 23:53N 29°46' W 095°05'2 4.6
2017-Sep-16 23:30N 29°47' W 095°04'1 0.4
2017-Sep-16 19:55N 29°46' W 095°05'0 0.2
2017-Sep-16 18:48N 29°46' W 095°06'1 0.0
2017-Sep-15 20:41N 29°46' W 095°05'1 0.4
2017-Sep-15 19:07N 29°46' W 095°06'0 1.2
2017-Sep-15 18:58N 29°46' W 095°06'1 1.4
2017-Sep-15 18:29N 29°46' W 095°05'1 0.3
2017-Sep-15 14:26N 29°45' W 095°06'2 0.7
2017-Sep-15 11:54N 29°47' W 095°05'2 2.4
2017-Sep-15 11:15N 29°46' W 095°05'0 0.1
2017-Sep-15 10:47N 29°46' W 095°06'1 0.4
2017-Sep-15 09:13N 29°46' W 095°05'1 3.0
2017-Sep-15 08:51N 29°47' W 095°04'0 0.4
2017-Sep-15 08:25N 29°47' W 095°04'1 2.1
2017-Sep-15 07:59N 29°46' W 095°05'3 5.3
2017-Sep-15 07:20N 29°44' W 095°02'2 6.7
2017-Sep-15 07:00N 29°42' W 095°00'4 7.2
2017-Sep-15 06:30N 29°39' W 094°58'4 7.0
2017-Sep-15 06:00N 29°36' W 094°57'4 7.2
2017-Sep-15 05:30N 29°33' W 094°54'68 3.7
2017-Sep-14 10:53N 30°03' W 093°44'2 4.3
2017-Sep-14 10:30N 30°03' W 093°42'2 4.1
2017-Sep-14 10:00N 30°04' W 093°40'2 4.4
2017-Sep-14 09:29N 30°04' W 093°37'2 4.3
2017-Sep-14 09:00N 30°04' W 093°35'2 4.1
2017-Sep-14 08:30N 30°04' W 093°32'2 3.9
2017-Sep-14 08:00N 30°04' W 093°30'2 3.5
2017-Sep-14 07:30N 30°04' W 093°28'2 3.5
2017-Sep-14 07:00N 30°04' W 093°26'2 3.5
2017-Sep-14 06:30N 30°04' W 093°24'2 3.6
2017-Sep-14 06:00N 30°04' W 093°22'2 3.6
2017-Sep-14 05:30N 30°05' W 093°20'2 4.3
2017-Sep-14 05:00N 30°06' W 093°19'2 3.9
2017-Sep-14 04:30N 30°05' W 093°17'1 2.5
2017-Sep-14 04:00N 30°04' W 093°16'2 3.9
2017-Sep-14 03:30N 30°02' W 093°15'2 4.2
2017-Sep-14 03:00N 30°00' W 093°14'3 5.1
2017-Sep-14 02:30N 29°58' W 093°12'3 5.1
2017-Sep-14 02:00N 29°56' W 093°10'2 4.3
2017-Sep-14 01:30N 29°56' W 093°07'1 2.8
2017-Sep-14 01:00N 29°56' W 093°06'2 4.6
2017-Sep-14 00:30N 29°56' W 093°03'37 4.3
2017-Sep-13 15:57N 29°51' W 092°21'2 4.0
2017-Sep-13 15:30N 29°50' W 092°19'2 3.7
2017-Sep-13 15:01N 29°49' W 092°18'1 2.4
2017-Sep-13 14:31N 29°49' W 092°16'2 4.1
2017-Sep-13 14:01N 29°48' W 092°14'2 3.6
2017-Sep-13 13:30N 29°47' W 092°12'2 3.9
2017-Sep-13 13:01N 29°47' W 092°10'2 4.4
2017-Sep-13 12:31N 29°47' W 092°08'2 4.9
2017-Sep-13 12:00N 29°48' W 092°05'2 4.6
2017-Sep-13 11:31N 29°49' W 092°03'2 4.8
2017-Sep-13 11:01N 29°50' W 091°60'2 4.4
2017-Sep-13 10:30N 29°50' W 091°57'  
Track history (hours):
 
Tides and Currents Weather Stations Pressure Air Temp Water Temp Dewpoint Dewpoint Depression Visibility Wind Speed Wind Dir Waves Ship Positions

Alva Dupre

Owner: Dupre Marine Transportation Inc, Houma, LA. More information available from US FCC via Universal Licensing System and Coast Guard Vessel Documentation Center.

Last reported at 2017-Sep-21 08:27 UTC. Time now 2017-Sep-21 09:01 UTC.
Position N 29°44' W 095°01'.

Length 23 m; draft 3.2 m.

Type: . MMSI: 367522540.

Date/timePositionNaut miles runAvg speedWind from/ knotsBaromVisibWave heightAir tempDewpointWater temp
2017-Sep-21 08:27N 29°44' W 095°01'0 0.0
2017-Sep-21 08:00N 29°44' W 095°01'0 0.0
2017-Sep-21 07:30N 29°44' W 095°01'0 0.0
2017-Sep-21 06:39N 29°44' W 095°01'0 0.0
2017-Sep-21 06:27N 29°44' W 095°01'0 0.0
2017-Sep-21 05:48N 29°44' W 095°01'0 0.0
2017-Sep-21 05:27N 29°44' W 095°01'0 0.0
2017-Sep-21 04:54N 29°44' W 095°01'0 0.0
2017-Sep-21 04:30N 29°44' W 095°01'0 0.0
2017-Sep-21 04:00N 29°44' W 095°01'0 0.0
2017-Sep-21 03:30N 29°44' W 095°01'0 0.0
2017-Sep-21 02:57N 29°44' W 095°01'0 0.1
2017-Sep-21 02:15N 29°44' W 095°01'0 0.0
2017-Sep-21 01:54N 29°44' W 095°01'0 0.0
2017-Sep-21 01:27N 29°44' W 095°01'0 0.0
2017-Sep-21 00:57N 29°44' W 095°01'0 0.0
2017-Sep-21 00:30N 29°44' W 095°01'0 0.0
2017-Sep-20 23:57N 29°44' W 095°01'0 0.0
2017-Sep-20 23:27N 29°44' W 095°01'0 0.0
2017-Sep-20 22:51N 29°44' W 095°01'0 0.0
2017-Sep-20 22:30N 29°44' W 095°01'0 0.0
2017-Sep-20 21:57N 29°44' W 095°01'0 0.0
2017-Sep-20 21:24N 29°44' W 095°01'0 0.0
2017-Sep-20 20:47N 29°44' W 095°01'0 0.0
2017-Sep-20 20:23N 29°44' W 095°01'0 0.0
2017-Sep-20 19:59N 29°44' W 095°01'0 0.0
2017-Sep-20 19:26N 29°44' W 095°01'0 0.0
2017-Sep-20 18:29N 29°44' W 095°01'0 0.0
2017-Sep-20 15:29N 29°44' W 095°01'0 0.0
2017-Sep-20 14:59N 29°44' W 095°01'0 0.0
2017-Sep-20 13:41N 29°44' W 095°01'0 0.0
2017-Sep-20 13:29N 29°44' W 095°01'0 0.0
2017-Sep-20 12:53N 29°44' W 095°01'0 0.0
2017-Sep-20 12:20N 29°44' W 095°01'0 0.0
2017-Sep-20 11:44N 29°44' W 095°01'0 0.0
2017-Sep-20 11:26N 29°44' W 095°01'0 0.0
2017-Sep-20 10:26N 29°44' W 095°01'0 0.0
2017-Sep-20 09:56N 29°44' W 095°01'0 0.0
2017-Sep-20 08:44N 29°44' W 095°01'0 0.0
2017-Sep-20 08:26N 29°44' W 095°01'0 0.0
2017-Sep-20 07:38N 29°44' W 095°01'0 0.0
2017-Sep-20 07:23N 29°44' W 095°01'0 0.0
2017-Sep-20 05:29N 29°44' W 095°01'0 0.0
2017-Sep-20 04:53N 29°44' W 095°01'0 0.0
2017-Sep-20 04:23N 29°44' W 095°01'0 0.0
2017-Sep-20 03:38N 29°44' W 095°01'0 0.0
2017-Sep-20 03:23N 29°44' W 095°01'0 0.0
2017-Sep-20 02:59N 29°44' W 095°01'0 0.0
2017-Sep-20 02:29N 29°44' W 095°01'0 0.0
2017-Sep-20 01:53N 29°44' W 095°01'0 0.0
2017-Sep-20 01:29N 29°44' W 095°01'0 0.0
2017-Sep-20 00:59N 29°44' W 095°01'0 0.3
2017-Sep-20 00:09N 29°44' W 095°01'0 0.0
2017-Sep-19 20:41N 29°44' W 095°01'0 0.1
2017-Sep-19 19:04N 29°44' W 095°01'0 2.4
2017-Sep-19 19:00N 29°44' W 095°01'0 0.3
2017-Sep-19 18:19N 29°44' W 095°01'0 0.0
2017-Sep-19 17:55N 29°44' W 095°01'0 0.0
2017-Sep-19 15:35N 29°44' W 095°01'0 0.0
2017-Sep-19 15:29N 29°44' W 095°01'0 0.0
2017-Sep-19 14:50N 29°44' W 095°01'0 0.0
2017-Sep-19 14:23N 29°44' W 095°01'1 2.1
2017-Sep-19 13:59N 29°44' W 095°02'3 5.9
2017-Sep-19 13:29N 29°46' W 095°05'0 0.6
2017-Sep-19 12:41N 29°46' W 095°05'1 0.8
2017-Sep-19 11:16N 29°45' W 095°06'1 1.6
2017-Sep-19 10:23N 29°45' W 095°04'1 2.9
2017-Sep-19 09:56N 29°46' W 095°05'1 1.8
2017-Sep-19 09:15N 29°45' W 095°04'3 7.6
2017-Sep-19 08:54N 29°44' W 095°02'3 7.3
2017-Sep-19 08:30N 29°42' W 094°59'4 7.9
2017-Sep-19 08:00N 29°38' W 094°58'3 5.4
2017-Sep-19 07:30N 29°37' W 095°01'1 1.5
2017-Sep-19 06:58N 29°37' W 095°02'0 0.0
2017-Sep-19 06:28N 29°37' W 095°02'0 0.0
2017-Sep-19 05:46N 29°37' W 095°02'0 0.0
2017-Sep-19 05:19N 29°37' W 095°02'0 0.0
2017-Sep-19 03:10N 29°37' W 095°02'0 0.0
2017-Sep-19 02:58N 29°37' W 095°02'0 0.0
2017-Sep-19 01:40N 29°37' W 095°02'0 0.0
2017-Sep-19 01:22N 29°37' W 095°02'0 0.0
2017-Sep-19 00:16N 29°37' W 095°02'0 0.0
2017-Sep-18 23:58N 29°37' W 095°02'0 0.0
2017-Sep-18 23:22N 29°37' W 095°02'0 0.0
2017-Sep-18 22:43N 29°37' W 095°02'0 0.0
2017-Sep-18 22:28N 29°37' W 095°02'0 0.0
2017-Sep-18 21:58N 29°37' W 095°02'0 0.0
2017-Sep-18 20:34N 29°37' W 095°02'0 0.0
2017-Sep-18 20:25N 29°37' W 095°02'0 0.0
2017-Sep-18 19:55N 29°37' W 095°02'0 0.0
2017-Sep-18 19:22N 29°37' W 095°02'0 0.0
2017-Sep-18 18:55N 29°37' W 095°02'0 0.0
2017-Sep-18 18:04N 29°37' W 095°02'0 0.0
2017-Sep-18 17:58N 29°37' W 095°02'0 0.0
2017-Sep-18 17:19N 29°37' W 095°02'0 0.0
2017-Sep-18 16:58N 29°37' W 095°02'0 0.1
2017-Sep-18 16:30N 29°37' W 095°01'0 0.5
2017-Sep-18 16:00N 29°37' W 095°01'3 6.4
2017-Sep-18 15:30N 29°38' W 094°58'4 8.7
2017-Sep-18 15:00N 29°42' W 094°60'4 7.4
2017-Sep-18 14:29N 29°44' W 095°03'3 6.3
2017-Sep-18 14:00N 29°47' W 095°04'1 1.0
2017-Sep-18 13:01N 29°46' W 095°05'0 7.2
2017-Sep-18 13:00N 29°46' W 095°05'4 7.0
2017-Sep-18 12:30N 29°44' W 095°01'0 0.0
2017-Sep-18 12:00N 29°44' W 095°01'0 0.0
2017-Sep-18 11:28N 29°44' W 095°01'0 0.0
2017-Sep-18 10:58N 29°44' W 095°01'2 4.7
2017-Sep-18 10:30N 29°45' W 095°04'2 0.6
2017-Sep-18 07:58N 29°46' W 095°05'1 1.5
2017-Sep-18 07:23N 29°46' W 095°06'0 0.0
2017-Sep-18 05:59N 29°45' W 095°06'0 0.0
2017-Sep-17 00:44N 29°45' W 095°06'0 0.2
2017-Sep-16 23:53N 29°46' W 095°05'2 4.6
2017-Sep-16 23:30N 29°47' W 095°04'1 0.4
2017-Sep-16 19:55N 29°46' W 095°05'0 0.2
2017-Sep-16 18:48N 29°46' W 095°06'1 0.0
2017-Sep-15 20:41N 29°46' W 095°05'1 0.4
2017-Sep-15 19:07N 29°46' W 095°06'0 1.2
2017-Sep-15 18:58N 29°46' W 095°06'1 1.4
2017-Sep-15 18:29N 29°46' W 095°05'1 0.3
2017-Sep-15 14:26N 29°45' W 095°06'2 0.7
2017-Sep-15 11:54N 29°47' W 095°05'2 2.4
2017-Sep-15 11:15N 29°46' W 095°05'0 0.1
2017-Sep-15 10:47N 29°46' W 095°06'1 0.4
2017-Sep-15 09:13N 29°46' W 095°05'1 3.0
2017-Sep-15 08:51N 29°47' W 095°04'0 0.4
2017-Sep-15 08:25N 29°47' W 095°04'1 2.1
2017-Sep-15 07:59N 29°46' W 095°05'3 5.3
2017-Sep-15 07:20N 29°44' W 095°02'2 6.7
2017-Sep-15 07:00N 29°42' W 095°00'4 7.2
2017-Sep-15 06:30N 29°39' W 094°58'4 7.0
2017-Sep-15 06:00N 29°36' W 094°57'4 7.2
2017-Sep-15 05:30N 29°33' W 094°54'68 3.7
2017-Sep-14 10:53N 30°03' W 093°44'2 4.3
2017-Sep-14 10:30N 30°03' W 093°42'2 4.1
2017-Sep-14 10:00N 30°04' W 093°40'2 4.4
2017-Sep-14 09:29N 30°04' W 093°37'2 4.3
2017-Sep-14 09:00N 30°04' W 093°35'2 4.1
2017-Sep-14 08:30N 30°04' W 093°32'2 3.9
2017-Sep-14 08:00N 30°04' W 093°30'2 3.5
2017-Sep-14 07:30N 30°04' W 093°28'2 3.5
2017-Sep-14 07:00N 30°04' W 093°26'2 3.5
2017-Sep-14 06:30N 30°04' W 093°24'2 3.6
2017-Sep-14 06:00N 30°04' W 093°22'2 3.6
2017-Sep-14 05:30N 30°05' W 093°20'2 4.3
2017-Sep-14 05:00N 30°06' W 093°19'2 3.9
2017-Sep-14 04:30N 30°05' W 093°17'1 2.5
2017-Sep-14 04:00N 30°04' W 093°16'2 3.9
2017-Sep-14 03:30N 30°02' W 093°15'2 4.2
2017-Sep-14 03:00N 30°00' W 093°14'3 5.1
2017-Sep-14 02:30N 29°58' W 093°12'3 5.1
2017-Sep-14 02:00N 29°56' W 093°10'2 4.3
2017-Sep-14 01:30N 29°56' W 093°07'1 2.8
2017-Sep-14 01:00N 29°56' W 093°06'2 4.6
2017-Sep-14 00:30N 29°56' W 093°03'37 4.3
2017-Sep-13 15:57N 29°51' W 092°21'2 4.0
2017-Sep-13 15:30N 29°50' W 092°19'2 3.7
2017-Sep-13 15:01N 29°49' W 092°18'1 2.4
2017-Sep-13 14:31N 29°49' W 092°16'2 4.1
2017-Sep-13 14:01N 29°48' W 092°14'2 3.6
2017-Sep-13 13:30N 29°47' W 092°12'2 3.9
2017-Sep-13 13:01N 29°47' W 092°10'2 4.4
2017-Sep-13 12:31N 29°47' W 092°08'2 4.9
2017-Sep-13 12:00N 29°48' W 092°05'2 4.6
2017-Sep-13 11:31N 29°49' W 092°03'2 4.8
2017-Sep-13 11:01N 29°50' W 091°60'2 4.4
2017-Sep-13 10:30N 29°50' W 091°57'  

Dump ship's entire track history